sensor_id;sensor_type;location;lat;lon;timestamp;temperature;humidity
4058;DHT22;2044;48.692;9.020;2023-03-01T00:02:21;-3.70;99.90
4058;DHT22;2044;48.692;9.020;2023-03-01T00:04:48;-3.70;99.90
4058;DHT22;2044;48.692;9.020;2023-03-01T00:07:14;-3.60;99.90
4058;DHT22;2044;48.692;9.020;2023-03-01T00:09:42;-3.70;99.90
4058;DHT22;2044;48.692;9.020;2023-03-01T00:12:11;-3.70;99.90
4058;DHT22;2044;48.692;9.020;2023-03-01T00:14:38;-3.80;99.90
4058;DHT22;2044;48.692;9.020;2023-03-01T00:17:04;-3.70;99.90
4058;DHT22;2044;48.692;9.020;2023-03-01T00:19:31;-3.70;99.90
4058;DHT22;2044;48.692;9.020;2023-03-01T00:21:58;-3.70;99.90
4058;DHT22;2044;48.692;9.020;2023-03-01T00:24:24;-3.60;99.90
4058;DHT22;2044;48.692;9.020;2023-03-01T00:26:54;-3.70;99.90
4058;DHT22;2044;48.692;9.020;2023-03-01T00:29:22;-3.80;99.90
4058;DHT22;2044;48.692;9.020;2023-03-01T00:31:48;-3.80;99.90
4058;DHT22;2044;48.692;9.020;2023-03-01T00:34:15;-4.00;99.90
4058;DHT22;2044;48.692;9.020;2023-03-01T00:36:42;-4.00;99.90
4058;DHT22;2044;48.692;9.020;2023-03-01T00:39:11;-4.00;99.90
4058;DHT22;2044;48.692;9.020;2023-03-01T00:41:38;-3.90;99.90
4058;DHT22;2044;48.692;9.020;2023-03-01T00:44:06;-4.00;99.90
4058;DHT22;2044;48.692;9.020;2023-03-01T00:46:33;-4.00;99.90
4058;DHT22;2044;48.692;9.020;2023-03-01T00:49:00;-4.00;99.90
4058;DHT22;2044;48.692;9.020;2023-03-01T00:51:28;-4.00;99.90
4058;DHT22;2044;48.692;9.020;2023-03-01T00:53:56;-4.00;99.90
4058;DHT22;2044;48.692;9.020;2023-03-01T00:56:23;-4.00;99.90
4058;DHT22;2044;48.692;9.020;2023-03-01T00:58:50;-4.10;99.90
4058;DHT22;2044;48.692;9.020;2023-03-01T01:01:20;-4.20;99.90
4058;DHT22;2044;48.692;9.020;2023-03-01T01:03:49;-4.20;99.90
4058;DHT22;2044;48.692;9.020;2023-03-01T01:06:18;-4.20;99.90
4058;DHT22;2044;48.692;9.020;2023-03-01T01:08:45;-4.20;99.90
4058;DHT22;2044;48.692;9.020;2023-03-01T01:11:12;-4.20;99.90
4058;DHT22;2044;48.692;9.020;2023-03-01T01:13:40;-4.20;99.90
4058;DHT22;2044;48.692;9.020;2023-03-01T01:16:07;-4.10;99.90
4058;DHT22;2044;48.692;9.020;2023-03-01T01:18:35;-4.00;99.90
4058;DHT22;2044;48.692;9.020;2023-03-01T01:21:06;-4.00;99.90
4058;DHT22;2044;48.692;9.020;2023-03-01T01:23:33;-4.00;99.90
4058;DHT22;2044;48.692;9.020;2023-03-01T01:26:04;-4.10;99.90
4058;DHT22;2044;48.692;9.020;2023-03-01T01:28:31;-4.10;99.90
4058;DHT22;2044;48.692;9.020;2023-03-01T01:30:58;-4.10;99.90
4058;DHT22;2044;48.692;9.020;2023-03-01T01:33:24;-4.20;99.90
4058;DHT22;2044;48.692;9.020;2023-03-01T01:35:53;-4.30;99.90
4058;DHT22;2044;48.692;9.020;2023-03-01T01:38:20;-4.30;99.90
4058;DHT22;2044;48.692;9.020;2023-03-01T01:40:48;-4.40;99.90
4058;DHT22;2044;48.692;9.020;2023-03-01T01:43:18;-4.30;99.90
4058;DHT22;2044;48.692;9.020;2023-03-01T01:45:46;-4.30;99.90
4058;DHT22;2044;48.692;9.020;2023-03-01T01:48:16;-4.20;99.90
4058;DHT22;2044;48.692;9.020;2023-03-01T01:50:44;-4.20;99.90
4058;DHT22;2044;48.692;9.020;2023-03-01T01:53:16;-4.30;99.90
4058;DHT22;2044;48.692;9.020;2023-03-01T01:55:46;-4.20;99.90
4058;DHT22;2044;48.692;9.020;2023-03-01T01:58:16;-4.10;99.90
4058;DHT22;2044;48.692;9.020;2023-03-01T02:00:44;-4.10;99.90
4058;DHT22;2044;48.692;9.020;2023-03-01T02:03:12;-4.00;99.90
4058;DHT22;2044;48.692;9.020;2023-03-01T02:05:47;-4.10;99.90
4058;DHT22;2044;48.692;9.020;2023-03-01T02:08:19;-4.10;99.90
4058;DHT22;2044;48.692;9.020;2023-03-01T02:10:48;-4.10;99.90
4058;DHT22;2044;48.692;9.020;2023-03-01T02:13:15;-4.10;99.90
4058;DHT22;2044;48.692;9.020;2023-03-01T02:15:42;-4.00;99.90
4058;DHT22;2044;48.692;9.020;2023-03-01T02:18:12;-4.00;99.90
4058;DHT22;2044;48.692;9.020;2023-03-01T02:20:49;-3.90;99.90
4058;DHT22;2044;48.692;9.020;2023-03-01T02:23:22;-3.70;99.90
4058;DHT22;2044;48.692;9.020;2023-03-01T02:25:53;-3.50;99.90
4058;DHT22;2044;48.692;9.020;2023-03-01T02:28:26;-3.50;99.90
4058;DHT22;2044;48.692;9.020;2023-03-01T02:30:53;-3.30;99.90
4058;DHT22;2044;48.692;9.020;2023-03-01T02:33:39;-3.30;99.90
4058;DHT22;2044;48.692;9.020;2023-03-01T02:36:08;-3.10;99.90
4058;DHT22;2044;48.692;9.020;2023-03-01T02:38:36;-3.10;99.90
4058;DHT22;2044;48.692;9.020;2023-03-01T02:41:06;-3.00;99.90
4058;DHT22;2044;48.692;9.020;2023-03-01T02:43:34;-3.00;99.90
4058;DHT22;2044;48.692;9.020;2023-03-01T02:46:06;-3.00;99.90
4058;DHT22;2044;48.692;9.020;2023-03-01T02:48:41;-3.00;99.90
4058;DHT22;2044;48.692;9.020;2023-03-01T02:51:16;-2.90;99.90
4058;DHT22;2044;48.692;9.020;2023-03-01T02:53:49;-2.90;99.90
4058;DHT22;2044;48.692;9.020;2023-03-01T02:56:19;-2.70;99.90
4058;DHT22;2044;48.692;9.020;2023-03-01T02:58:48;-2.70;99.90
4058;DHT22;2044;48.692;9.020;2023-03-01T03:01:17;-2.70;99.90
4058;DHT22;2044;48.692;9.020;2023-03-01T03:03:44;-2.70;99.90
4058;DHT22;2044;48.692;9.020;2023-03-01T03:06:11;-2.60;99.90
4058;DHT22;2044;48.692;9.020;2023-03-01T03:08:38;-2.60;99.90
4058;DHT22;2044;48.692;9.020;2023-03-01T03:11:04;-2.60;99.90
4058;DHT22;2044;48.692;9.020;2023-03-01T03:13:31;-2.60;99.90
4058;DHT22;2044;48.692;9.020;2023-03-01T03:15:59;-2.60;99.90
4058;DHT22;2044;48.692;9.020;2023-03-01T03:18:26;-2.60;99.90
4058;DHT22;2044;48.692;9.020;2023-03-01T03:20:53;-2.50;99.90
4058;DHT22;2044;48.692;9.020;2023-03-01T03:23:21;-2.60;99.90
4058;DHT22;2044;48.692;9.020;2023-03-01T03:25:49;-2.60;99.90
4058;DHT22;2044;48.692;9.020;2023-03-01T03:28:16;-2.50;99.90
4058;DHT22;2044;48.692;9.020;2023-03-01T03:30:43;-2.50;99.90
4058;DHT22;2044;48.692;9.020;2023-03-01T03:33:12;-2.50;99.90
4058;DHT22;2044;48.692;9.020;2023-03-01T03:35:42;-2.60;99.90
4058;DHT22;2044;48.692;9.020;2023-03-01T03:38:10;-2.50;99.90
4058;DHT22;2044;48.692;9.020;2023-03-01T03:40:43;-2.60;99.90
4058;DHT22;2044;48.692;9.020;2023-03-01T03:43:12;-2.50;99.90
4058;DHT22;2044;48.692;9.020;2023-03-01T03:45:39;-2.50;99.90
4058;DHT22;2044;48.692;9.020;2023-03-01T03:48:08;-2.60;99.90
4058;DHT22;2044;48.692;9.020;2023-03-01T03:50:37;-2.40;99.90
4058;DHT22;2044;48.692;9.020;2023-03-01T03:53:08;-2.50;99.90
4058;DHT22;2044;48.692;9.020;2023-03-01T03:55:35;-2.40;99.90
4058;DHT22;2044;48.692;9.020;2023-03-01T03:58:06;-2.40;99.90
4058;DHT22;2044;48.692;9.020;2023-03-01T04:00:33;-2.40;99.90
4058;DHT22;2044;48.692;9.020;2023-03-01T04:03:01;-2.40;99.90
4058;DHT22;2044;48.692;9.020;2023-03-01T04:05:28;-2.30;99.90
4058;DHT22;2044;48.692;9.020;2023-03-01T04:07:56;-2.30;99.90
4058;DHT22;2044;48.692;9.020;2023-03-01T04:10:34;-2.30;99.90
4058;DHT22;2044;48.692;9.020;2023-03-01T04:13:01;-2.30;99.90
4058;DHT22;2044;48.692;9.020;2023-03-01T04:15:28;-2.30;99.90
4058;DHT22;2044;48.692;9.020;2023-03-01T04:17:55;-2.30;99.90
4058;DHT22;2044;48.692;9.020;2023-03-01T04:20:24;-2.20;99.90
4058;DHT22;2044;48.692;9.020;2023-03-01T04:22:52;-2.20;99.90
4058;DHT22;2044;48.692;9.020;2023-03-01T04:25:20;-2.20;99.90
4058;DHT22;2044;48.692;9.020;2023-03-01T04:27:47;-2.10;99.90
4058;DHT22;2044;48.692;9.020;2023-03-01T04:30:14;-2.20;99.90
4058;DHT22;2044;48.692;9.020;2023-03-01T04:32:41;-2.20;99.90
4058;DHT22;2044;48.692;9.020;2023-03-01T04:35:08;-2.10;99.90
4058;DHT22;2044;48.692;9.020;2023-03-01T04:37:35;-2.20;99.90
4058;DHT22;2044;48.692;9.020;2023-03-01T04:40:02;-2.10;99.90
4058;DHT22;2044;48.692;9.020;2023-03-01T04:42:39;-2.20;99.90
4058;DHT22;2044;48.692;9.020;2023-03-01T04:45:07;-2.20;99.90
4058;DHT22;2044;48.692;9.020;2023-03-01T04:47:38;-2.20;99.90
4058;DHT22;2044;48.692;9.020;2023-03-01T04:50:06;-2.20;99.90
4058;DHT22;2044;48.692;9.020;2023-03-01T04:52:33;-2.10;99.90
4058;DHT22;2044;48.692;9.020;2023-03-01T04:55:00;-2.10;99.90
4058;DHT22;2044;48.692;9.020;2023-03-01T04:57:27;-2.10;99.90
4058;DHT22;2044;48.692;9.020;2023-03-01T04:59:55;-2.10;99.90
4058;DHT22;2044;48.692;9.020;2023-03-01T05:02:22;-2.00;99.90
4058;DHT22;2044;48.692;9.020;2023-03-01T05:04:48;-2.10;99.90
4058;DHT22;2044;48.692;9.020;2023-03-01T05:07:15;-2.00;99.90
4058;DHT22;2044;48.692;9.020;2023-03-01T05:09:44;-2.00;99.90
4058;DHT22;2044;48.692;9.020;2023-03-01T05:12:11;-2.10;99.90
4058;DHT22;2044;48.692;9.020;2023-03-01T05:14:38;-2.10;99.90
4058;DHT22;2044;48.692;9.020;2023-03-01T05:17:06;-2.10;99.90
4058;DHT22;2044;48.692;9.020;2023-03-01T05:19:33;-2.00;99.90
4058;DHT22;2044;48.692;9.020;2023-03-01T05:22:00;-1.90;99.90
4058;DHT22;2044;48.692;9.020;2023-03-01T05:24:32;-1.90;99.90
4058;DHT22;2044;48.692;9.020;2023-03-01T05:26:59;-2.00;99.90
4058;DHT22;2044;48.692;9.020;2023-03-01T05:29:27;-2.00;99.90
4058;DHT22;2044;48.692;9.020;2023-03-01T05:31:56;-2.00;99.90
4058;DHT22;2044;48.692;9.020;2023-03-01T05:34:25;-1.90;99.90
4058;DHT22;2044;48.692;9.020;2023-03-01T05:36:52;-1.90;99.90
4058;DHT22;2044;48.692;9.020;2023-03-01T05:39:20;-1.90;99.90
4058;DHT22;2044;48.692;9.020;2023-03-01T05:41:48;-1.90;99.90
4058;DHT22;2044;48.692;9.020;2023-03-01T05:44:15;-1.80;99.90
4058;DHT22;2044;48.692;9.020;2023-03-01T05:46:42;-1.90;99.90
4058;DHT22;2044;48.692;9.020;2023-03-01T05:49:10;-1.90;99.90
4058;DHT22;2044;48.692;9.020;2023-03-01T05:51:40;-1.80;99.90
4058;DHT22;2044;48.692;9.020;2023-03-01T05:54:07;-1.80;99.90
4058;DHT22;2044;48.692;9.020;2023-03-01T05:56:33;-1.90;99.90
4058;DHT22;2044;48.692;9.020;2023-03-01T05:59:00;-1.80;99.90
4058;DHT22;2044;48.692;9.020;2023-03-01T06:01:27;-1.70;99.90
4058;DHT22;2044;48.692;9.020;2023-03-01T06:03:54;-1.70;99.90
4058;DHT22;2044;48.692;9.020;2023-03-01T06:06:22;-1.60;99.90
4058;DHT22;2044;48.692;9.020;2023-03-01T06:08:50;-1.60;99.90
4058;DHT22;2044;48.692;9.020;2023-03-01T06:11:17;-1.70;99.90
4058;DHT22;2044;48.692;9.020;2023-03-01T06:13:44;-1.70;99.90
4058;DHT22;2044;48.692;9.020;2023-03-01T06:16:12;-1.60;99.90
4058;DHT22;2044;48.692;9.020;2023-03-01T06:18:39;-1.60;99.90
4058;DHT22;2044;48.692;9.020;2023-03-01T06:21:07;-1.70;99.90
4058;DHT22;2044;48.692;9.020;2023-03-01T06:23:35;-1.60;99.90
4058;DHT22;2044;48.692;9.020;2023-03-01T06:26:07;-1.50;99.90
4058;DHT22;2044;48.692;9.020;2023-03-01T06:28:34;-1.50;99.90
4058;DHT22;2044;48.692;9.020;2023-03-01T06:31:01;-1.40;99.90
4058;DHT22;2044;48.692;9.020;2023-03-01T06:33:27;-1.40;99.90
4058;DHT22;2044;48.692;9.020;2023-03-01T06:35:55;-1.30;99.90
4058;DHT22;2044;48.692;9.020;2023-03-01T06:38:22;-1.30;99.90
4058;DHT22;2044;48.692;9.020;2023-03-01T06:40:52;-1.40;99.90
4058;DHT22;2044;48.692;9.020;2023-03-01T06:43:20;-1.30;99.90
4058;DHT22;2044;48.692;9.020;2023-03-01T06:45:47;-1.20;99.90
4058;DHT22;2044;48.692;9.020;2023-03-01T06:48:14;-1.10;99.90
4058;DHT22;2044;48.692;9.020;2023-03-01T06:50:41;-1.10;99.90
4058;DHT22;2044;48.692;9.020;2023-03-01T06:53:08;-1.00;99.90
4058;DHT22;2044;48.692;9.020;2023-03-01T06:55:34;-1.00;99.90
4058;DHT22;2044;48.692;9.020;2023-03-01T06:58:02;-1.00;99.90
4058;DHT22;2044;48.692;9.020;2023-03-01T07:00:31;-0.90;99.90
4058;DHT22;2044;48.692;9.020;2023-03-01T07:02:59;-0.50;99.90
4058;DHT22;2044;48.692;9.020;2023-03-01T07:05:27;0.10;99.90
4058;DHT22;2044;48.692;9.020;2023-03-01T07:07:54;0.50;99.90
4058;DHT22;2044;48.692;9.020;2023-03-01T07:10:21;0.80;99.90
4058;DHT22;2044;48.692;9.020;2023-03-01T07:12:48;1.30;99.90
4058;DHT22;2044;48.692;9.020;2023-03-01T07:15:15;2.00;99.90
4058;DHT22;2044;48.692;9.020;2023-03-01T07:17:43;2.50;99.90
4058;DHT22;2044;48.692;9.020;2023-03-01T07:20:11;2.80;99.90
4058;DHT22;2044;48.692;9.020;2023-03-01T07:22:39;2.80;99.90
4058;DHT22;2044;48.692;9.020;2023-03-01T07:25:07;2.80;99.90
4058;DHT22;2044;48.692;9.020;2023-03-01T07:27:34;3.00;99.90
4058;DHT22;2044;48.692;9.020;2023-03-01T07:30:01;3.10;99.90
4058;DHT22;2044;48.692;9.020;2023-03-01T07:32:27;3.20;99.90
4058;DHT22;2044;48.692;9.020;2023-03-01T07:34:55;3.50;99.90
4058;DHT22;2044;48.692;9.020;2023-03-01T07:37:22;4.20;99.90
4058;DHT22;2044;48.692;9.020;2023-03-01T07:39:49;4.20;99.90
4058;DHT22;2044;48.692;9.020;2023-03-01T07:42:15;4.30;99.90
4058;DHT22;2044;48.692;9.020;2023-03-01T07:44:42;4.40;99.90
4058;DHT22;2044;48.692;9.020;2023-03-01T07:47:09;5.60;99.90
4058;DHT22;2044;48.692;9.020;2023-03-01T07:49:35;5.80;99.90
4058;DHT22;2044;48.692;9.020;2023-03-01T07:52:04;5.00;99.90
4058;DHT22;2044;48.692;9.020;2023-03-01T07:54:30;4.80;99.90
4058;DHT22;2044;48.692;9.020;2023-03-01T07:56:57;4.90;99.90
4058;DHT22;2044;48.692;9.020;2023-03-01T07:59:24;4.80;99.90
4058;DHT22;2044;48.692;9.020;2023-03-01T08:01:54;4.20;99.90
4058;DHT22;2044;48.692;9.020;2023-03-01T08:04:21;5.90;99.90
4058;DHT22;2044;48.692;9.020;2023-03-01T08:06:48;7.60;99.90
4058;DHT22;2044;48.692;9.020;2023-03-01T08:09:16;7.20;99.90
4058;DHT22;2044;48.692;9.020;2023-03-01T08:11:43;7.30;99.90
4058;DHT22;2044;48.692;9.020;2023-03-01T08:14:10;6.60;99.90
4058;DHT22;2044;48.692;9.020;2023-03-01T08:16:36;7.50;99.90
4058;DHT22;2044;48.692;9.020;2023-03-01T08:19:04;7.20;99.90
4058;DHT22;2044;48.692;9.020;2023-03-01T08:21:31;7.40;99.90
4058;DHT22;2044;48.692;9.020;2023-03-01T08:24:00;7.40;99.90
4058;DHT22;2044;48.692;9.020;2023-03-01T08:26:28;7.20;99.90
4058;DHT22;2044;48.692;9.020;2023-03-01T08:28:55;7.60;99.90
4058;DHT22;2044;48.692;9.020;2023-03-01T08:31:23;6.50;99.90
4058;DHT22;2044;48.692;9.020;2023-03-01T08:33:53;5.80;99.90
4058;DHT22;2044;48.692;9.020;2023-03-01T08:36:22;6.80;99.90
4058;DHT22;2044;48.692;9.020;2023-03-01T08:38:49;6.90;99.90
4058;DHT22;2044;48.692;9.020;2023-03-01T08:41:16;7.00;99.90
4058;DHT22;2044;48.692;9.020;2023-03-01T08:43:44;6.80;99.90
4058;DHT22;2044;48.692;9.020;2023-03-01T08:46:12;5.40;99.90
4058;DHT22;2044;48.692;9.020;2023-03-01T08:48:39;5.40;99.90
4058;DHT22;2044;48.692;9.020;2023-03-01T08:51:09;5.80;99.90
4058;DHT22;2044;48.692;9.020;2023-03-01T08:53:36;6.40;99.90
4058;DHT22;2044;48.692;9.020;2023-03-01T08:56:03;5.90;99.90
4058;DHT22;2044;48.692;9.020;2023-03-01T08:58:29;4.50;99.90
4058;DHT22;2044;48.692;9.020;2023-03-01T09:00:58;4.70;99.90
4058;DHT22;2044;48.692;9.020;2023-03-01T09:03:25;4.40;99.90
4058;DHT22;2044;48.692;9.020;2023-03-01T09:05:52;5.30;99.90
4058;DHT22;2044;48.692;9.020;2023-03-01T09:08:19;5.50;99.90
4058;DHT22;2044;48.692;9.020;2023-03-01T09:10:46;4.70;99.90
4058;DHT22;2044;48.692;9.020;2023-03-01T09:13:13;4.40;99.90
4058;DHT22;2044;48.692;9.020;2023-03-01T09:15:39;4.50;99.90
4058;DHT22;2044;48.692;9.020;2023-03-01T09:18:07;3.70;99.90
4058;DHT22;2044;48.692;9.020;2023-03-01T09:20:34;4.30;99.90
4058;DHT22;2044;48.692;9.020;2023-03-01T09:23:01;3.80;99.90
4058;DHT22;2044;48.692;9.020;2023-03-01T09:25:28;3.40;99.90
4058;DHT22;2044;48.692;9.020;2023-03-01T09:27:55;2.90;99.90
4058;DHT22;2044;48.692;9.020;2023-03-01T09:30:22;3.20;99.90
4058;DHT22;2044;48.692;9.020;2023-03-01T09:32:49;4.00;99.90
4058;DHT22;2044;48.692;9.020;2023-03-01T09:35:17;4.50;99.90
4058;DHT22;2044;48.692;9.020;2023-03-01T09:37:45;5.30;99.90
4058;DHT22;2044;48.692;9.020;2023-03-01T09:40:15;4.80;99.90
4058;DHT22;2044;48.692;9.020;2023-03-01T09:42:53;4.30;99.90
4058;DHT22;2044;48.692;9.020;2023-03-01T09:45:27;3.90;99.90
4058;DHT22;2044;48.692;9.020;2023-03-01T09:47:56;4.50;99.90
4058;DHT22;2044;48.692;9.020;2023-03-01T09:50:26;5.20;99.90
4058;DHT22;2044;48.692;9.020;2023-03-01T09:53:00;4.20;99.90
4058;DHT22;2044;48.692;9.020;2023-03-01T09:55:31;4.20;99.90
4058;DHT22;2044;48.692;9.020;2023-03-01T09:58:04;3.90;99.90
4058;DHT22;2044;48.692;9.020;2023-03-01T10:00:37;4.10;99.90
4058;DHT22;2044;48.692;9.020;2023-03-01T10:03:12;4.70;99.90
4058;DHT22;2044;48.692;9.020;2023-03-01T10:05:49;4.70;99.90
4058;DHT22;2044;48.692;9.020;2023-03-01T10:08:26;5.30;99.90
4058;DHT22;2044;48.692;9.020;2023-03-01T10:10:55;5.90;99.90
4058;DHT22;2044;48.692;9.020;2023-03-01T10:13:25;5.50;99.90
4058;DHT22;2044;48.692;9.020;2023-03-01T10:15:55;4.50;99.90
4058;DHT22;2044;48.692;9.020;2023-03-01T10:18:25;5.00;99.90
4058;DHT22;2044;48.692;9.020;2023-03-01T10:20:57;6.50;99.90
4058;DHT22;2044;48.692;9.020;2023-03-01T10:23:24;7.70;99.90
4058;DHT22;2044;48.692;9.020;2023-03-01T10:26:11;8.30;99.90
4058;DHT22;2044;48.692;9.020;2023-03-01T10:28:44;7.20;99.90
4058;DHT22;2044;48.692;9.020;2023-03-01T10:31:18;7.60;99.90
4058;DHT22;2044;48.692;9.020;2023-03-01T10:33:47;7.40;99.90
4058;DHT22;2044;48.692;9.020;2023-03-01T10:36:20;5.60;99.90
4058;DHT22;2044;48.692;9.020;2023-03-01T10:38:49;5.70;99.90
4058;DHT22;2044;48.692;9.020;2023-03-01T10:41:18;6.50;99.90
4058;DHT22;2044;48.692;9.020;2023-03-01T10:43:46;7.70;99.90
4058;DHT22;2044;48.692;9.020;2023-03-01T10:46:24;7.00;99.90
4058;DHT22;2044;48.692;9.020;2023-03-01T10:49:15;6.80;99.90
4058;DHT22;2044;48.692;9.020;2023-03-01T10:51:44;6.30;99.90
4058;DHT22;2044;48.692;9.020;2023-03-01T10:54:20;5.80;99.90
4058;DHT22;2044;48.692;9.020;2023-03-01T10:56:49;7.10;99.90
4058;DHT22;2044;48.692;9.020;2023-03-01T10:59:27;7.40;99.90
4058;DHT22;2044;48.692;9.020;2023-03-01T11:02:15;7.80;99.90
4058;DHT22;2044;48.692;9.020;2023-03-01T11:04:57;8.90;99.90
4058;DHT22;2044;48.692;9.020;2023-03-01T11:07:25;10.20;99.90
4058;DHT22;2044;48.692;9.020;2023-03-01T11:09:52;9.80;99.90
4058;DHT22;2044;48.692;9.020;2023-03-01T11:12:20;8.70;99.90
4058;DHT22;2044;48.692;9.020;2023-03-01T11:14:48;10.30;99.90
4058;DHT22;2044;48.692;9.020;2023-03-01T11:17:18;7.50;99.90
4058;DHT22;2044;48.692;9.020;2023-03-01T11:20:00;8.00;99.90
4058;DHT22;2044;48.692;9.020;2023-03-01T11:22:30;7.70;99.90
4058;DHT22;2044;48.692;9.020;2023-03-01T11:24:59;7.50;99.90
4058;DHT22;2044;48.692;9.020;2023-03-01T11:27:29;8.40;99.90
4058;DHT22;2044;48.692;9.020;2023-03-01T11:29:59;6.90;99.90
4058;DHT22;2044;48.692;9.020;2023-03-01T11:32:32;7.30;99.90
4058;DHT22;2044;48.692;9.020;2023-03-01T11:35:05;8.70;99.90
4058;DHT22;2044;48.692;9.020;2023-03-01T11:37:40;8.50;99.90
4058;DHT22;2044;48.692;9.020;2023-03-01T11:40:14;9.50;99.90
4058;DHT22;2044;48.692;9.020;2023-03-01T11:42:59;9.50;99.90
4058;DHT22;2044;48.692;9.020;2023-03-01T11:45:35;9.80;99.90
4058;DHT22;2044;48.692;9.020;2023-03-01T11:48:24;9.00;99.90
4058;DHT22;2044;48.692;9.020;2023-03-01T11:50:54;8.20;99.90
4058;DHT22;2044;48.692;9.020;2023-03-01T11:53:40;8.90;99.90
4058;DHT22;2044;48.692;9.020;2023-03-01T11:56:21;8.60;99.90
4058;DHT22;2044;48.692;9.020;2023-03-01T11:59:26;8.60;99.90
4058;DHT22;2044;48.692;9.020;2023-03-01T12:02:12;8.50;99.90
4058;DHT22;2044;48.692;9.020;2023-03-01T12:04:59;8.80;99.90
4058;DHT22;2044;48.692;9.020;2023-03-01T12:07:38;9.50;99.90
4058;DHT22;2044;48.692;9.020;2023-03-01T12:10:23;9.30;99.90
4058;DHT22;2044;48.692;9.020;2023-03-01T12:13:01;9.30;99.90
4058;DHT22;2044;48.692;9.020;2023-03-01T12:15:45;9.80;99.90
4058;DHT22;2044;48.692;9.020;2023-03-01T12:18:32;9.80;99.90
4058;DHT22;2044;48.692;9.020;2023-03-01T12:21:14;10.10;99.90
4058;DHT22;2044;48.692;9.020;2023-03-01T12:23:58;9.60;99.90
4058;DHT22;2044;48.692;9.020;2023-03-01T12:26:32;9.10;99.90
4058;DHT22;2044;48.692;9.020;2023-03-01T12:29:16;9.00;99.90
4058;DHT22;2044;48.692;9.020;2023-03-01T12:32:07;8.20;99.90
4058;DHT22;2044;48.692;9.020;2023-03-01T12:35:09;8.00;99.90
4058;DHT22;2044;48.692;9.020;2023-03-01T12:37:50;7.90;99.90
4058;DHT22;2044;48.692;9.020;2023-03-01T12:40:31;7.50;99.90
4058;DHT22;2044;48.692;9.020;2023-03-01T12:43:09;8.30;99.90
4058;DHT22;2044;48.692;9.020;2023-03-01T12:45:47;8.30;99.90
4058;DHT22;2044;48.692;9.020;2023-03-01T12:48:29;8.90;99.90
4058;DHT22;2044;48.692;9.020;2023-03-01T12:51:00;9.50;99.90
4058;DHT22;2044;48.692;9.020;2023-03-01T12:53:30;9.60;99.90
4058;DHT22;2044;48.692;9.020;2023-03-01T12:56:01;9.10;99.90
4058;DHT22;2044;48.692;9.020;2023-03-01T12:58:32;8.80;99.90
4058;DHT22;2044;48.692;9.020;2023-03-01T13:01:14;9.70;99.90
4058;DHT22;2044;48.692;9.020;2023-03-01T13:03:57;8.90;99.90
4058;DHT22;2044;48.692;9.020;2023-03-01T13:06:32;8.10;99.90
4058;DHT22;2044;48.692;9.020;2023-03-01T13:09:06;8.00;99.90
4058;DHT22;2044;48.692;9.020;2023-03-01T13:11:36;7.80;99.90
4058;DHT22;2044;48.692;9.020;2023-03-01T13:14:37;7.60;99.90
4058;DHT22;2044;48.692;9.020;2023-03-01T13:17:29;7.30;99.90
4058;DHT22;2044;48.692;9.020;2023-03-01T13:19:57;7.80;99.90
4058;DHT22;2044;48.692;9.020;2023-03-01T13:22:30;8.50;99.90
4058;DHT22;2044;48.692;9.020;2023-03-01T13:25:03;7.90;99.90
4058;DHT22;2044;48.692;9.020;2023-03-01T13:27:38;8.50;99.90
4058;DHT22;2044;48.692;9.020;2023-03-01T13:30:40;8.30;99.90
4058;DHT22;2044;48.692;9.020;2023-03-01T13:33:45;7.80;99.90
4058;DHT22;2044;48.692;9.020;2023-03-01T13:36:46;7.40;99.90
4058;DHT22;2044;48.692;9.020;2023-03-01T13:39:27;7.60;99.90
4058;DHT22;2044;48.692;9.020;2023-03-01T13:41:56;8.30;99.90
4058;DHT22;2044;48.692;9.020;2023-03-01T13:44:29;8.40;99.90
4058;DHT22;2044;48.692;9.020;2023-03-01T13:46:59;7.80;99.90
4058;DHT22;2044;48.692;9.020;2023-03-01T13:49:42;7.70;99.90
4058;DHT22;2044;48.692;9.020;2023-03-01T13:55:16;7.70;99.90
4058;DHT22;2044;48.692;9.020;2023-03-01T13:57:46;7.50;99.90
4058;DHT22;2044;48.692;9.020;2023-03-01T14:00:31;7.50;99.90
4058;DHT22;2044;48.692;9.020;2023-03-01T14:03:10;7.90;99.90
4058;DHT22;2044;48.692;9.020;2023-03-01T14:05:38;8.20;99.90
4058;DHT22;2044;48.692;9.020;2023-03-01T14:08:19;7.80;99.90
4058;DHT22;2044;48.692;9.020;2023-03-01T14:10:54;7.60;99.90
4058;DHT22;2044;48.692;9.020;2023-03-01T14:13:37;7.90;99.90
4058;DHT22;2044;48.692;9.020;2023-03-01T14:16:19;8.60;99.90
4058;DHT22;2044;48.692;9.020;2023-03-01T14:18:58;8.60;99.90
4058;DHT22;2044;48.692;9.020;2023-03-01T14:21:29;8.40;99.90
4058;DHT22;2044;48.692;9.020;2023-03-01T14:23:57;8.70;99.90
4058;DHT22;2044;48.692;9.020;2023-03-01T14:26:24;8.70;99.90
4058;DHT22;2044;48.692;9.020;2023-03-01T14:28:51;8.70;99.90
4058;DHT22;2044;48.692;9.020;2023-03-01T14:31:36;8.30;99.90
4058;DHT22;2044;48.692;9.020;2023-03-01T14:34:05;8.20;99.90
4058;DHT22;2044;48.692;9.020;2023-03-01T14:36:33;7.80;99.90
4058;DHT22;2044;48.692;9.020;2023-03-01T14:39:01;8.20;99.90
4058;DHT22;2044;48.692;9.020;2023-03-01T14:41:33;8.20;99.90
4058;DHT22;2044;48.692;9.020;2023-03-01T14:44:03;7.90;99.90
4058;DHT22;2044;48.692;9.020;2023-03-01T14:46:33;7.80;99.90
4058;DHT22;2044;48.692;9.020;2023-03-01T14:49:05;8.00;99.90
4058;DHT22;2044;48.692;9.020;2023-03-01T14:51:36;7.80;99.90
4058;DHT22;2044;48.692;9.020;2023-03-01T14:54:10;7.10;99.90
4058;DHT22;2044;48.692;9.020;2023-03-01T14:56:45;6.90;99.90
4058;DHT22;2044;48.692;9.020;2023-03-01T15:01:40;6.80;99.90
4058;DHT22;2044;48.692;9.020;2023-03-01T15:04:12;6.90;99.90
4058;DHT22;2044;48.692;9.020;2023-03-01T15:06:39;6.70;99.90
4058;DHT22;2044;48.692;9.020;2023-03-01T15:09:11;7.10;99.90
4058;DHT22;2044;48.692;9.020;2023-03-01T15:11:39;7.10;99.90
4058;DHT22;2044;48.692;9.020;2023-03-01T15:14:39;6.90;99.90
4058;DHT22;2044;48.692;9.020;2023-03-01T15:17:20;6.80;99.90
4058;DHT22;2044;48.692;9.020;2023-03-01T15:19:51;6.80;99.90
4058;DHT22;2044;48.692;9.020;2023-03-01T15:22:25;6.70;99.90
4058;DHT22;2044;48.692;9.020;2023-03-01T15:24:52;6.80;99.90
4058;DHT22;2044;48.692;9.020;2023-03-01T15:27:21;6.80;99.90
4058;DHT22;2044;48.692;9.020;2023-03-01T15:29:50;6.60;99.90
4058;DHT22;2044;48.692;9.020;2023-03-01T15:32:27;6.60;99.90
4058;DHT22;2044;48.692;9.020;2023-03-01T15:34:56;6.80;99.90
4058;DHT22;2044;48.692;9.020;2023-03-01T15:37:40;6.90;99.90
4058;DHT22;2044;48.692;9.020;2023-03-01T15:40:19;6.70;99.90
4058;DHT22;2044;48.692;9.020;2023-03-01T15:42:47;6.50;99.90
4058;DHT22;2044;48.692;9.020;2023-03-01T15:45:22;6.30;99.90
4058;DHT22;2044;48.692;9.020;2023-03-01T15:47:52;6.20;99.90
4058;DHT22;2044;48.692;9.020;2023-03-01T15:50:23;6.10;99.90
4058;DHT22;2044;48.692;9.020;2023-03-01T15:52:51;5.80;99.90
4058;DHT22;2044;48.692;9.020;2023-03-01T15:55:19;5.70;99.90
4058;DHT22;2044;48.692;9.020;2023-03-01T15:57:47;5.70;99.90
4058;DHT22;2044;48.692;9.020;2023-03-01T16:00:15;5.70;99.90
4058;DHT22;2044;48.692;9.020;2023-03-01T16:02:43;5.80;99.90
4058;DHT22;2044;48.692;9.020;2023-03-01T16:05:17;5.70;99.90
4058;DHT22;2044;48.692;9.020;2023-03-01T16:07:46;5.60;99.90
4058;DHT22;2044;48.692;9.020;2023-03-01T16:10:14;5.60;99.90
4058;DHT22;2044;48.692;9.020;2023-03-01T16:12:40;5.50;99.90
4058;DHT22;2044;48.692;9.020;2023-03-01T16:15:13;5.50;99.90
4058;DHT22;2044;48.692;9.020;2023-03-01T16:17:42;5.40;99.90
4058;DHT22;2044;48.692;9.020;2023-03-01T16:20:09;5.30;99.90
4058;DHT22;2044;48.692;9.020;2023-03-01T16:22:36;5.20;99.90
4058;DHT22;2044;48.692;9.020;2023-03-01T16:25:05;5.00;99.90
4058;DHT22;2044;48.692;9.020;2023-03-01T16:27:33;4.90;99.90
4058;DHT22;2044;48.692;9.020;2023-03-01T16:30:00;4.80;99.90
4058;DHT22;2044;48.692;9.020;2023-03-01T16:49:51;4.20;99.90
4058;DHT22;2044;48.692;9.020;2023-03-01T16:52:18;4.10;99.90
4058;DHT22;2044;48.692;9.020;2023-03-01T16:54:46;4.00;99.90
4058;DHT22;2044;48.692;9.020;2023-03-01T16:57:16;3.80;99.90